createdAt,value
2022-08-28T00:01:59.900Z,59.19
2022-08-28T00:04:26.817Z,59.05
2022-08-28T00:06:53.281Z,59.19
2022-08-28T00:09:19.679Z,59.13
2022-08-28T00:11:46.977Z,59.05
2022-08-28T00:14:13.822Z,59.07
2022-08-28T00:16:40.314Z,58.73
2022-08-28T00:19:06.779Z,59.02
2022-08-28T00:21:33.379Z,59.17
2022-08-28T00:24:00.622Z,59.17
2022-08-28T00:26:45.885Z,59.71
2022-08-28T00:29:12.757Z,59.41
2022-08-28T00:31:39.605Z,59.53
2022-08-28T00:34:09.660Z,59.13
2022-08-28T00:36:37.636Z,59.30
2022-08-28T00:39:06.216Z,59.25
2022-08-28T00:41:34.684Z,59.20
2022-08-28T00:44:23.800Z,59.06
2022-08-28T00:46:52.365Z,59.54
2022-08-28T00:49:23.481Z,59.66
2022-08-28T00:52:12.487Z,59.38
2022-08-28T00:55:04.673Z,59.79
2022-08-28T00:57:35.912Z,59.52
2022-08-28T01:00:07.223Z,59.86
2022-08-28T01:02:33.751Z,59.93
2022-08-28T01:05:00.393Z,59.70
2022-08-28T01:07:26.853Z,60.01
2022-08-28T01:09:54.666Z,60.09
2022-08-28T01:12:26.242Z,60.04
2022-08-28T01:14:59.727Z,60.09
2022-08-28T01:17:28.958Z,60.37
2022-08-28T01:20:00.861Z,60.38
2022-08-28T01:22:39.965Z,60.05
2022-08-28T01:25:11.333Z,60.05
2022-08-28T01:27:38.622Z,60.21
2022-08-28T01:30:05.421Z,60.24
2022-08-28T01:32:38.869Z,60.29
2022-08-28T01:35:10.297Z,60.87
2022-08-28T01:37:37.557Z,60.65
2022-08-28T01:40:08.583Z,60.86
2022-08-28T01:42:39.365Z,60.72
2022-08-28T01:45:10.921Z,60.60
2022-08-28T01:47:38.975Z,60.71
2022-08-28T01:50:07.154Z,60.41
2022-08-28T01:52:33.957Z,60.57
2022-08-28T01:55:00.372Z,60.46
2022-08-28T01:57:26.793Z,60.34
2022-08-28T01:59:54.308Z,60.46
2022-08-28T02:02:20.782Z,60.62
2022-08-28T02:04:48.520Z,60.57
2022-08-28T02:07:16.785Z,60.42
2022-08-28T02:09:43.355Z,60.48
2022-08-28T02:12:10.278Z,60.61
2022-08-28T02:14:38.611Z,60.71
2022-08-28T02:17:04.988Z,60.55
2022-08-28T02:19:32.149Z,61.07
2022-08-28T02:21:58.642Z,60.86
2022-08-28T02:24:25.024Z,60.65
2022-08-28T02:26:51.424Z,61.15
2022-08-28T02:29:18.566Z,61.21
2022-08-28T02:31:44.963Z,61.20
2022-08-28T02:34:11.418Z,60.92
2022-08-28T02:36:41.776Z,60.90
2022-08-28T02:39:08.322Z,61.13
2022-08-28T02:41:34.818Z,60.96
2022-08-28T02:44:01.388Z,61.05
2022-08-28T02:46:27.974Z,61.44
2022-08-28T02:48:56.164Z,61.52
2022-08-28T02:51:23.058Z,61.60
2022-08-28T02:53:50.365Z,61.41
2022-08-28T02:56:16.960Z,61.67
2022-08-28T02:58:43.365Z,61.50
2022-08-28T03:01:12.509Z,61.55
2022-08-28T03:03:40.765Z,61.47
2022-08-28T03:06:09.505Z,61.82
2022-08-28T03:08:35.988Z,61.73
2022-08-28T03:11:02.401Z,61.76
2022-08-28T03:13:29.998Z,61.33
2022-08-28T03:15:57.524Z,61.60
2022-08-28T03:18:26.154Z,61.70
2022-08-28T03:20:53.362Z,61.69
2022-08-28T03:23:29.054Z,61.68
2022-08-28T03:26:01.433Z,61.44
2022-08-28T03:28:30.916Z,61.88
2022-08-28T03:30:57.999Z,61.42
2022-08-28T03:33:25.045Z,61.90
2022-08-28T03:35:51.517Z,61.69
2022-08-28T03:38:19.935Z,61.42
2022-08-28T03:40:47.442Z,61.69
2022-08-28T03:43:18.094Z,61.69
2022-08-28T03:45:58.041Z,61.23
2022-08-28T03:48:26.702Z,61.37
2022-08-28T03:50:53.898Z,61.43
2022-08-28T03:53:23.630Z,61.80
2022-08-28T03:55:50.329Z,61.79
2022-08-28T03:58:19.010Z,61.85
2022-08-28T04:00:46.586Z,61.67
2022-08-28T04:03:13.458Z,61.52
2022-08-28T04:05:44.366Z,61.34
2022-08-28T04:08:15.865Z,61.59
2022-08-28T04:10:43.948Z,61.55
2022-08-28T04:13:12.177Z,61.42
2022-08-28T04:15:39.546Z,61.46
2022-08-28T04:18:06.028Z,61.41
2022-08-28T04:20:32.438Z,61.62
2022-08-28T04:22:58.909Z,61.49
2022-08-28T04:25:26.876Z,61.23
2022-08-28T04:27:53.268Z,61.19
2022-08-28T04:30:19.870Z,61.36
2022-08-28T04:32:46.298Z,61.47
2022-08-28T04:35:13.567Z,61.35
2022-08-28T04:37:41.163Z,61.46
2022-08-28T04:40:10.798Z,61.69
2022-08-28T04:42:38.725Z,61.83
2022-08-28T04:45:06.473Z,61.41
2022-08-28T04:47:38.401Z,61.39
2022-08-28T04:50:06.950Z,63.27
2022-08-28T04:52:33.564Z,62.83
2022-08-28T04:55:00.183Z,61.47
2022-08-28T04:57:26.592Z,61.17
2022-08-28T04:59:53.089Z,60.84
2022-08-28T05:02:19.570Z,60.79
2022-08-28T05:04:46.809Z,61.01
2022-08-28T05:07:13.488Z,61.31
2022-08-28T05:09:39.873Z,61.24
2022-08-28T05:12:06.388Z,60.96
2022-08-28T05:14:32.829Z,61.46
2022-08-28T05:16:59.241Z,61.39
2022-08-28T05:19:27.699Z,61.24
2022-08-28T05:21:55.129Z,61.26
2022-08-28T05:24:22.341Z,61.25
2022-08-28T05:26:48.897Z,61.38
2022-08-28T05:29:16.687Z,61.18
2022-08-28T05:31:43.424Z,61.18
2022-08-28T05:34:10.698Z,61.11
2022-08-28T05:36:39.119Z,61.00
2022-08-28T05:39:09.145Z,60.83
2022-08-28T05:41:36.976Z,60.81
2022-08-28T05:44:06.997Z,61.22
2022-08-28T05:46:35.628Z,60.97
2022-08-28T05:49:03.949Z,60.85
2022-08-28T05:51:34.218Z,61.05
2022-08-28T05:54:01.946Z,61.13
2022-08-28T05:56:31.240Z,61.09
2022-08-28T05:58:59.943Z,61.02
2022-08-28T06:01:29.453Z,60.86
2022-08-28T06:03:58.153Z,60.80
2022-08-28T06:06:26.536Z,60.97
2022-08-28T06:08:59.129Z,61.03
2022-08-28T06:11:31.284Z,60.88
2022-08-28T06:14:01.725Z,60.95
2022-08-28T06:16:31.645Z,60.85
2022-08-28T06:18:59.150Z,60.80
2022-08-28T06:21:26.061Z,60.57
2022-08-28T06:23:52.569Z,60.88
2022-08-28T06:26:19.119Z,60.63
2022-08-28T06:28:45.807Z,60.76
2022-08-28T06:31:23.540Z,60.85
2022-08-28T06:33:53.810Z,61.01
2022-08-28T06:36:20.375Z,60.88
2022-08-28T06:38:46.928Z,60.97
2022-08-28T06:41:15.441Z,61.14
2022-08-28T06:43:42.372Z,60.95
2022-08-28T06:46:09.110Z,61.08
2022-08-28T06:48:35.638Z,61.10
2022-08-28T06:51:06.650Z,60.43
2022-08-28T06:53:33.668Z,61.01
2022-08-28T06:56:25.577Z,60.86
2022-08-28T06:58:55.114Z,60.78
2022-08-28T07:01:29.105Z,60.83
2022-08-28T07:04:01.530Z,60.74
2022-08-28T07:06:32.239Z,60.65
2022-08-28T07:08:58.679Z,60.60
2022-08-28T07:11:28.819Z,60.42
2022-08-28T07:13:56.617Z,60.65
2022-08-28T07:16:27.153Z,60.55
2022-08-28T07:18:54.164Z,60.12
2022-08-28T07:21:20.962Z,59.57
2022-08-28T07:23:47.479Z,59.39
2022-08-28T07:26:17.502Z,59.56
2022-08-28T07:28:44.010Z,59.63
2022-08-28T07:31:22.841Z,59.45
2022-08-28T07:33:53.525Z,59.44
2022-08-28T07:36:29.006Z,59.64
2022-08-28T07:38:58.294Z,59.71
2022-08-28T07:41:28.310Z,60.02
2022-08-28T07:44:13.394Z,60.09
2022-08-28T07:46:41.130Z,60.12
2022-08-28T07:49:08.693Z,59.65
2022-08-28T07:51:35.427Z,59.76
2022-08-28T07:54:03.811Z,60.27
2022-08-28T07:56:30.958Z,60.24
2022-08-28T07:58:58.596Z,59.89
2022-08-28T08:01:26.803Z,59.84
2022-08-28T08:03:55.931Z,59.91
2022-08-28T08:06:34.471Z,59.63
2022-08-28T08:09:02.275Z,59.71
2022-08-28T08:11:32.632Z,60.01
2022-08-28T08:14:05.483Z,60.47
2022-08-28T08:16:38.987Z,60.02
2022-08-28T08:19:09.699Z,60.09
2022-08-28T08:21:36.877Z,60.10
2022-08-28T08:24:03.594Z,60.12
2022-08-28T08:26:30.087Z,59.34
2022-08-28T08:28:56.716Z,58.94
2022-08-28T08:31:29.505Z,58.28
2022-08-28T08:33:58.450Z,58.02
2022-08-28T08:36:26.545Z,58.11
2022-08-28T08:38:59.431Z,58.20
2022-08-28T08:41:48.053Z,57.71
2022-08-28T08:44:21.610Z,56.97
2022-08-28T08:47:15.474Z,57.51
2022-08-28T08:49:50.066Z,57.11
2022-08-28T08:52:43.901Z,57.18
2022-08-28T08:55:19.606Z,56.91
2022-08-28T08:57:51.225Z,57.21
2022-08-28T09:00:19.323Z,57.38
2022-08-28T09:03:02.918Z,56.81
2022-08-28T09:05:50.005Z,56.55
2022-08-28T09:08:28.708Z,56.35
2022-08-28T09:11:02.661Z,56.43
2022-08-28T09:13:49.245Z,56.18
2022-08-28T09:16:48.362Z,55.87
2022-08-28T09:19:20.936Z,54.87
2022-08-28T09:21:49.658Z,54.44
2022-08-28T09:24:32.190Z,54.10
2022-08-28T09:27:23.009Z,52.86
2022-08-28T09:30:07.539Z,52.66
2022-08-28T09:32:41.541Z,52.30
2022-08-28T09:35:28.438Z,51.53
2022-08-28T09:37:56.517Z,51.90
2022-08-28T09:40:22.922Z,52.12
2022-08-28T09:43:22.809Z,51.82
2022-08-28T09:46:16.711Z,52.33
2022-08-28T09:48:45.558Z,52.32
2022-08-28T09:51:20.945Z,52.01
2022-08-28T09:53:50.350Z,51.84
2022-08-28T09:56:27.365Z,51.77
2022-08-28T09:58:59.416Z,51.96
2022-08-28T10:01:40.830Z,51.72
2022-08-28T10:05:00.611Z,51.81
2022-08-28T10:07:46.317Z,51.72
2022-08-28T10:10:29.748Z,52.02
2022-08-28T10:13:14.700Z,52.33
2022-08-28T10:15:43.370Z,52.24
2022-08-28T10:18:49.147Z,52.49
2022-08-28T10:21:29.417Z,52.59
2022-08-28T10:24:26.347Z,52.51
2022-08-28T10:27:44.856Z,52.75
2022-08-28T10:31:32.067Z,52.59
2022-08-28T10:34:30.083Z,51.89
2022-08-28T10:37:24.633Z,51.35
2022-08-28T10:39:57.615Z,50.90
2022-08-28T10:42:36.717Z,50.87
2022-08-28T10:45:06.962Z,50.89
2022-08-28T10:47:39.067Z,50.67
2022-08-28T10:50:17.359Z,51.31
2022-08-28T10:53:00.164Z,51.37
2022-08-28T10:55:55.070Z,50.17
2022-08-28T10:58:25.576Z,50.46
2022-08-28T11:01:38.762Z,50.98
2022-08-28T11:04:24.922Z,50.24
2022-08-28T11:07:00.210Z,50.50
2022-08-28T11:09:33.719Z,50.25
2022-08-28T11:12:27.913Z,49.78
2022-08-28T11:14:54.447Z,50.33
2022-08-28T11:17:30.350Z,50.85
2022-08-28T11:20:15.352Z,50.90
2022-08-28T11:22:49.433Z,51.29
2022-08-28T11:25:27.643Z,51.07
2022-08-28T11:28:19.721Z,49.83
2022-08-28T11:30:49.439Z,50.15
2022-08-28T11:33:43.595Z,50.64
2022-08-28T11:36:17.957Z,50.93
2022-08-28T11:38:44.265Z,52.38
2022-08-28T11:41:21.734Z,52.92
2022-08-28T11:43:52.300Z,52.41
2022-08-28T11:46:32.803Z,51.33
2022-08-28T11:49:02.389Z,51.05
2022-08-28T11:52:01.398Z,50.08
2022-08-28T11:54:51.135Z,49.09
2022-08-28T11:57:45.549Z,48.34
2022-08-28T12:00:34.222Z,48.27
2022-08-28T12:03:06.764Z,48.96
2022-08-28T12:05:33.306Z,49.47
2022-08-28T12:08:02.341Z,48.08
2022-08-28T12:10:30.453Z,48.52
2022-08-28T12:12:56.778Z,48.07
2022-08-28T12:15:29.491Z,47.52
2022-08-28T12:18:01.482Z,46.92
2022-08-28T12:20:30.367Z,46.88
2022-08-28T12:23:03.382Z,46.64
2022-08-28T12:25:35.668Z,46.82
2022-08-28T12:28:22.714Z,46.24
2022-08-28T12:31:14.094Z,46.09
2022-08-28T12:33:57.680Z,46.93
2022-08-28T12:36:28.626Z,46.78
2022-08-28T12:39:00.370Z,46.40
2022-08-28T12:41:27.322Z,47.00
2022-08-28T12:43:58.165Z,46.00
2022-08-28T12:46:27.307Z,45.30
2022-08-28T12:48:59.605Z,45.06
2022-08-28T12:51:31.840Z,44.45
2022-08-28T12:54:05.053Z,44.83
2022-08-28T12:56:35.110Z,45.19
2022-08-28T12:59:34.721Z,45.74
2022-08-28T13:02:09.675Z,44.99
2022-08-28T13:04:40.346Z,45.23
2022-08-28T13:07:17.337Z,45.30
2022-08-28T13:09:50.982Z,45.18
2022-08-28T13:12:54.900Z,45.11
2022-08-28T13:15:44.613Z,44.55
2022-08-28T13:18:33.925Z,44.39
2022-08-28T13:21:33.993Z,44.36
2022-08-28T13:24:26.080Z,45.54
2022-08-28T13:27:06.691Z,45.99
2022-08-28T13:29:34.570Z,45.88
2022-08-28T13:32:04.357Z,45.51
2022-08-28T13:34:33.698Z,44.91
2022-08-28T13:37:07.296Z,45.00
2022-08-28T13:39:43.898Z,45.00
2022-08-28T13:42:13.566Z,44.57
2022-08-28T13:44:53.132Z,45.25
2022-08-28T13:47:19.836Z,44.70
2022-08-28T13:49:46.721Z,44.74
2022-08-28T13:52:13.712Z,45.28
2022-08-28T13:54:43.494Z,45.78
2022-08-28T13:57:13.339Z,45.22
2022-08-28T13:59:40.065Z,44.55
2022-08-28T14:02:29.398Z,44.44
2022-08-28T14:04:55.872Z,45.38
2022-08-28T14:07:22.401Z,44.67
2022-08-28T14:09:51.797Z,44.61
2022-08-28T14:12:20.585Z,44.19
2022-08-28T14:14:48.700Z,45.05
2022-08-28T14:17:15.229Z,44.86
2022-08-28T14:19:41.670Z,44.83
2022-08-28T14:22:08.838Z,45.06
2022-08-28T14:24:35.253Z,45.66
2022-08-28T14:27:02.545Z,45.84
2022-08-28T14:29:29.010Z,46.13
2022-08-28T14:31:55.460Z,45.39
2022-08-28T14:34:24.049Z,45.33
2022-08-28T14:36:54.927Z,45.55
2022-08-28T14:39:24.921Z,45.07
2022-08-28T14:41:53.233Z,45.06
2022-08-28T14:44:21.774Z,45.94
2022-08-28T14:46:49.415Z,45.92
2022-08-28T14:49:17.674Z,45.64
2022-08-28T14:51:45.332Z,45.16
2022-08-28T14:54:14.068Z,45.16
2022-08-28T14:56:43.089Z,45.58
2022-08-28T14:59:16.741Z,45.48
2022-08-28T15:01:46.365Z,45.13
2022-08-28T15:04:16.603Z,45.00
2022-08-28T15:06:44.238Z,45.50
2022-08-28T15:09:12.931Z,45.65
2022-08-28T15:11:39.684Z,46.21
2022-08-28T15:14:06.719Z,46.42
2022-08-28T15:16:36.510Z,45.96
2022-08-28T15:19:03.010Z,46.38
2022-08-28T15:21:38.272Z,46.04
2022-08-28T15:24:06.356Z,46.47
2022-08-28T15:26:33.297Z,47.00
2022-08-28T15:29:03.698Z,47.05
2022-08-28T15:31:33.115Z,47.16
2022-08-28T15:34:04.441Z,47.34
2022-08-28T15:36:34.277Z,47.75
2022-08-28T15:39:20.213Z,47.27
2022-08-28T15:41:47.131Z,46.60
2022-08-28T15:44:15.124Z,47.03
2022-08-28T15:46:48.309Z,46.95
2022-08-28T15:49:17.208Z,47.38
2022-08-28T15:51:43.628Z,47.30
2022-08-28T15:54:11.174Z,47.75
2022-08-28T15:56:37.593Z,48.21
2022-08-28T15:59:04.098Z,48.55
2022-08-28T16:01:30.614Z,48.98
2022-08-28T16:03:57.046Z,48.43
2022-08-28T16:06:23.799Z,48.91
2022-08-28T16:08:50.511Z,48.44
2022-08-28T16:11:19.307Z,48.19
2022-08-28T16:13:46.394Z,48.50
2022-08-28T16:16:13.023Z,48.51
2022-08-28T16:18:39.827Z,48.76
2022-08-28T16:21:06.484Z,49.11
2022-08-28T16:23:33.571Z,49.15
2022-08-28T16:26:01.349Z,49.36
2022-08-28T16:28:27.942Z,49.57
2022-08-28T16:30:54.658Z,49.51
2022-08-28T16:33:22.197Z,49.67
2022-08-28T16:35:50.724Z,49.78
2022-08-28T16:38:22.166Z,49.85
2022-08-28T16:40:48.651Z,49.66
2022-08-28T16:43:15.282Z,49.73
2022-08-28T16:45:44.002Z,49.59
2022-08-28T16:48:12.684Z,49.70
2022-08-28T16:50:43.689Z,50.30
2022-08-28T16:53:11.917Z,50.70
2022-08-28T16:55:40.322Z,50.98
2022-08-28T16:58:07.135Z,50.76
2022-08-28T17:00:33.774Z,51.14
2022-08-28T17:03:00.468Z,51.01
2022-08-28T17:05:27.181Z,50.85
2022-08-28T17:07:53.618Z,51.23
2022-08-28T17:10:23.437Z,51.25
2022-08-28T17:12:50.027Z,51.30
2022-08-28T17:15:17.878Z,51.27
2022-08-28T17:17:44.790Z,51.35
2022-08-28T17:20:30.829Z,51.37
2022-08-28T17:22:57.329Z,51.42
2022-08-28T17:25:25.189Z,51.55
2022-08-28T17:27:52.386Z,51.76
2022-08-28T17:30:19.300Z,51.97
2022-08-28T17:32:46.122Z,52.01
2022-08-28T17:35:13.001Z,52.34
2022-08-28T17:37:40.611Z,52.46
2022-08-28T17:40:10.280Z,52.44
2022-08-28T17:42:36.744Z,52.57
2022-08-28T17:45:04.527Z,52.54
2022-08-28T17:47:31.737Z,52.57
2022-08-28T17:50:01.542Z,52.69
2022-08-28T17:52:29.387Z,52.88
2022-08-28T17:54:56.082Z,52.90
2022-08-28T17:57:24.096Z,52.98
2022-08-28T17:59:50.525Z,53.15
2022-08-28T18:02:17.666Z,53.42
2022-08-28T18:04:44.218Z,53.26
2022-08-28T18:07:11.200Z,53.62
2022-08-28T18:09:37.674Z,53.63
2022-08-28T18:12:06.256Z,53.68
2022-08-28T18:14:38.752Z,53.82
2022-08-28T18:17:05.338Z,53.79
2022-08-28T18:19:35.761Z,53.95
2022-08-28T18:22:02.454Z,54.12
2022-08-28T18:24:29.057Z,54.27
2022-08-28T18:26:58.869Z,54.46
2022-08-28T18:29:25.617Z,54.71
2022-08-28T18:31:52.282Z,54.63
2022-08-28T18:34:18.834Z,54.71
2022-08-28T18:36:45.445Z,55.03
2022-08-28T18:39:12.136Z,55.20
2022-08-28T18:41:43.898Z,55.41
2022-08-28T18:44:12.200Z,55.45
2022-08-28T18:46:38.852Z,55.66
2022-08-28T18:49:05.715Z,55.90
2022-08-28T18:51:32.881Z,55.89
2022-08-28T18:54:03.459Z,55.80
2022-08-28T18:56:32.315Z,55.99
2022-08-28T18:59:00.291Z,56.24
2022-08-28T19:01:26.887Z,56.19
2022-08-28T19:03:54.858Z,56.31
2022-08-28T19:06:21.765Z,56.50
2022-08-28T19:08:48.234Z,56.35
2022-08-28T19:11:14.724Z,56.47
2022-08-28T19:13:41.669Z,56.76
2022-08-28T19:16:08.927Z,56.91
2022-08-28T19:18:35.540Z,57.03
2022-08-28T19:21:09.011Z,57.25
2022-08-28T19:23:35.989Z,57.12
2022-08-28T19:26:02.820Z,57.62
2022-08-28T19:28:29.238Z,57.62
2022-08-28T19:30:55.785Z,57.69
2022-08-28T19:33:22.335Z,57.88
2022-08-28T19:35:48.846Z,57.77
2022-08-28T19:38:15.537Z,57.88
2022-08-28T19:40:42.280Z,57.94
2022-08-28T19:43:11.452Z,57.90
2022-08-28T19:45:44.911Z,58.38
2022-08-28T19:48:11.999Z,58.15
2022-08-28T19:50:39.265Z,58.24
2022-08-28T19:53:05.788Z,58.19
2022-08-28T19:55:32.597Z,58.22
2022-08-28T19:57:59.562Z,58.17
2022-08-28T20:00:31.911Z,58.30
2022-08-28T20:02:58.892Z,58.30
2022-08-28T20:05:25.336Z,58.32
2022-08-28T20:07:51.812Z,57.99
2022-08-28T20:10:18.990Z,58.43
2022-08-28T20:12:48.246Z,58.25
2022-08-28T20:15:16.739Z,58.54
2022-08-28T20:17:43.856Z,58.63
2022-08-28T20:20:11.458Z,58.84
2022-08-28T20:22:39.185Z,58.67
2022-08-28T20:25:06.837Z,58.47
2022-08-28T20:27:33.365Z,58.69
2022-08-28T20:30:10.296Z,58.72
2022-08-28T20:32:41.440Z,59.02
2022-08-28T20:35:10.506Z,58.74
2022-08-28T20:37:45.139Z,58.85
2022-08-28T20:40:18.483Z,58.77
2022-08-28T20:42:46.189Z,58.54
2022-08-28T20:45:15.261Z,58.42
2022-08-28T20:47:41.889Z,58.41
2022-08-28T20:50:08.705Z,57.95
2022-08-28T20:52:35.134Z,57.79
2022-08-28T20:55:02.078Z,57.46
2022-08-28T20:57:28.480Z,57.40
2022-08-28T20:59:54.858Z,57.61
2022-08-28T21:02:23.869Z,57.41
2022-08-28T21:04:51.748Z,57.35
2022-08-28T21:07:20.452Z,56.76
2022-08-28T21:10:05.397Z,56.83
2022-08-28T21:12:37.721Z,56.82
2022-08-28T21:15:07.392Z,56.50
2022-08-28T21:17:33.960Z,55.92
2022-08-28T21:20:04.428Z,56.35
2022-08-28T21:22:33.004Z,56.23
2022-08-28T21:25:02.218Z,55.79
2022-08-28T21:27:29.577Z,55.51
2022-08-28T21:29:57.461Z,55.46
2022-08-28T21:32:24.613Z,55.69
2022-08-28T21:34:51.221Z,55.45
2022-08-28T21:37:17.624Z,55.37
2022-08-28T21:39:44.078Z,55.13
2022-08-28T21:42:10.729Z,55.08
2022-08-28T21:44:37.816Z,55.22
2022-08-28T21:47:04.670Z,54.89
2022-08-28T21:49:31.186Z,54.99
2022-08-28T21:52:01.014Z,54.77
2022-08-28T21:54:28.040Z,54.70
2022-08-28T21:56:58.699Z,54.44
2022-08-28T21:59:25.900Z,54.75
2022-08-28T22:01:57.214Z,54.23
2022-08-28T22:04:24.350Z,54.24
2022-08-28T22:06:50.783Z,54.00
2022-08-28T22:09:17.190Z,54.02
2022-08-28T22:11:43.970Z,53.84
2022-08-28T22:14:10.988Z,53.93
2022-08-28T22:16:37.587Z,53.57
2022-08-28T22:19:04.213Z,53.92
2022-08-28T22:21:49.223Z,53.72
2022-08-28T22:24:15.894Z,53.91
2022-08-28T22:26:43.255Z,53.57
2022-08-28T22:29:11.157Z,53.70
2022-08-28T22:31:38.603Z,53.55
2022-08-28T22:34:12.692Z,53.68
2022-08-28T22:36:39.782Z,53.80
2022-08-28T22:39:06.237Z,53.78
2022-08-28T22:41:33.140Z,53.69
2022-08-28T22:44:00.219Z,53.88
2022-08-28T22:46:27.772Z,53.92
2022-08-28T22:48:54.255Z,54.17
2022-08-28T22:51:20.664Z,54.16
2022-08-28T22:53:47.630Z,54.06
2022-08-28T22:56:15.861Z,54.32
2022-08-28T22:58:42.424Z,54.44
2022-08-28T23:01:17.430Z,54.37
2022-08-28T23:03:44.944Z,54.38
2022-08-28T23:06:11.919Z,54.25
2022-08-28T23:08:38.381Z,54.00
2022-08-28T23:11:05.017Z,54.37
2022-08-28T23:13:32.790Z,54.03
2022-08-28T23:15:59.426Z,54.32
2022-08-28T23:18:25.890Z,54.26
2022-08-28T23:20:55.147Z,54.25
2022-08-28T23:23:22.898Z,54.27
2022-08-28T23:25:50.420Z,54.26
2022-08-28T23:28:17.712Z,54.31
2022-08-28T23:30:48.580Z,54.25
2022-08-28T23:33:23.561Z,54.45
2022-08-28T23:35:51.252Z,54.52
2022-08-28T23:38:18.032Z,54.83
2022-08-28T23:40:44.545Z,54.89
2022-08-28T23:43:11.914Z,54.76
2022-08-28T23:45:39.640Z,54.32
2022-08-28T23:48:06.273Z,54.30
2022-08-28T23:50:32.914Z,54.36
2022-08-28T23:52:59.583Z,54.21
2022-08-28T23:55:27.108Z,53.96
2022-08-28T23:57:54.255Z,53.61
